Terminal Aerodrome Forecast
Issued by NWS

Home | Current Version | Previous Version | Text Only | Print | Product List | Glossary On
Versions: 1 2 3 4 5 6 7 8 9 10 11 12 13 14 15 16 17 18 19 20 21 22 23 24 25 26
000
FTUS45 KREV 192332
TAFTVL
TAF
KTVL 192332Z 2000/2024 19012G22KT P6SM SCT060 BKN120 WS020/24045KT
     FM200400 19018G30KT P6SM VCSH SCT050 BKN090 WS020/24050KT
     FM200800 20011G18KT 6SM -RA BKN025 OVC045 WS020/24050KT
     FM201200 20010KT 3SM -SHSN SCT020 BKN035
     FM201400 20011G16KT P6SM SCT035 BKN070=

USA.gov is the U.S. government's official web portal to all federal, state and local government web resources and services.